createdAt,value
2019-06-07T00:01:23.390Z,96.57
2019-06-07T00:04:27.302Z,96.51
2019-06-07T00:07:31.141Z,96.53
2019-06-07T00:10:36.961Z,96.58
2019-06-07T00:13:40.826Z,97.40
2019-06-07T00:16:44.694Z,97.43
2019-06-07T00:19:48.658Z,97.35
2019-06-07T00:22:52.612Z,97.38
2019-06-07T00:25:56.439Z,97.43
2019-06-07T00:29:00.329Z,97.45
2019-06-07T00:32:04.361Z,97.32
2019-06-07T00:35:09.111Z,97.75
2019-06-07T00:38:14.265Z,97.41
2019-06-07T00:41:20.235Z,97.26
2019-06-07T00:44:23.821Z,97.77
2019-06-07T00:47:27.733Z,98.79
2019-06-07T00:50:31.540Z,98.74
2019-06-07T00:53:35.521Z,98.02
2019-06-07T00:56:39.436Z,98.39
2019-06-07T00:59:43.452Z,98.25
2019-06-07T01:02:48.491Z,97.84
2019-06-07T01:05:52.451Z,97.80
2019-06-07T01:08:56.275Z,98.74
2019-06-07T01:12:00.098Z,99.14
2019-06-07T01:15:04.201Z,99.60
2019-06-07T01:21:15.828Z,99.63
2019-06-07T01:24:20.082Z,99.09
2019-06-07T01:27:25.530Z,98.75
2019-06-07T01:30:30.119Z,99.05
2019-06-07T01:33:50.427Z,99.03
2019-06-07T01:36:39.533Z,99.17
2019-06-07T01:39:43.380Z,99.32
2019-06-07T01:42:47.225Z,99.52
2019-06-07T01:45:51.108Z,99.53
2019-06-07T01:48:55.117Z,99.80
2019-06-07T01:51:59.015Z,99.90
2019-06-07T01:55:02.905Z,99.85
2019-06-07T01:58:06.835Z,100.00
2019-06-07T02:01:10.696Z,99.97
2019-06-07T02:04:14.609Z,99.91
2019-06-07T02:07:20.355Z,99.52
2019-06-07T02:10:27.705Z,99.10
2019-06-07T02:13:30.780Z,99.34
2019-06-07T02:16:34.883Z,99.42
2019-06-07T02:19:38.704Z,99.42
2019-06-07T02:22:42.537Z,99.34
2019-06-07T02:25:50.411Z,99.75
2019-06-07T02:28:52.089Z,100.00
2019-06-07T02:31:55.921Z,100.00
2019-06-07T02:34:59.781Z,100.00
2019-06-07T02:38:03.648Z,100.00
2019-06-07T02:41:07.719Z,100.00
2019-06-07T02:44:11.599Z,100.00
2019-06-07T02:47:15.531Z,100.00
2019-06-07T02:50:20.018Z,100.00
2019-06-07T02:53:25.646Z,100.00
2019-06-07T02:56:53.921Z,100.00
2019-06-07T03:00:04.300Z,100.00
2019-06-07T03:02:41.729Z,100.00
2019-06-07T03:05:47.987Z,100.00
2019-06-07T03:08:52.652Z,100.00
2019-06-07T03:11:59.721Z,100.00
2019-06-07T03:15:04.540Z,100.00
2019-06-07T03:18:15.348Z,100.00
2019-06-07T03:21:22.017Z,100.00
2019-06-07T03:24:31.030Z,100.00
2019-06-07T03:27:40.630Z,100.00
2019-06-07T03:30:57.110Z,100.00
2019-06-07T03:33:45.544Z,100.00
2019-06-07T03:36:49.146Z,100.00
2019-06-07T03:39:52.966Z,100.00
2019-06-07T03:42:56.803Z,100.00
2019-06-07T03:46:00.702Z,100.00
2019-06-07T03:49:04.538Z,100.00
2019-06-07T03:52:08.440Z,100.00
2019-06-07T03:55:12.434Z,100.00
2019-06-07T03:58:36.669Z,100.00
2019-06-07T04:01:21.917Z,100.00
2019-06-07T04:04:25.815Z,100.00
2019-06-07T04:07:31.176Z,100.00
2019-06-07T04:10:53.420Z,100.00
2019-06-07T04:13:42.782Z,100.00
2019-06-07T04:16:46.688Z,100.00
2019-06-07T04:19:50.519Z,100.00
2019-06-07T04:22:54.347Z,100.00
2019-06-07T04:25:58.177Z,100.00
2019-06-07T04:29:32.251Z,100.00
2019-06-07T04:32:07.766Z,100.00
2019-06-07T04:35:11.680Z,100.00
2019-06-07T04:38:16.065Z,100.00
2019-06-07T04:41:22.789Z,100.00
2019-06-07T04:44:26.618Z,100.00
2019-06-07T04:47:33.809Z,100.00
2019-06-07T04:50:41.129Z,100.00
2019-06-07T04:53:43.606Z,100.00
2019-06-07T04:56:47.432Z,100.00
2019-06-07T05:02:58.570Z,100.00
2019-06-07T05:06:02.433Z,100.00
2019-06-07T05:09:07.144Z,100.00
2019-06-07T05:12:10.986Z,100.00
2019-06-07T05:15:15.167Z,100.00
2019-06-07T05:18:19.020Z,100.00
2019-06-07T05:21:22.834Z,100.00
2019-06-07T05:24:26.803Z,100.00
2019-06-07T05:27:33.577Z,100.00
2019-06-07T05:33:43.836Z,100.00
2019-06-07T05:37:10.127Z,100.00
2019-06-07T05:39:53.307Z,99.81
2019-06-07T05:42:57.263Z,99.52
2019-06-07T05:46:01.187Z,98.70
2019-06-07T05:49:04.998Z,96.21
2019-06-07T05:52:08.818Z,96.15
2019-06-07T05:55:12.709Z,95.85
2019-06-07T05:58:16.746Z,94.61
2019-06-07T06:01:43.051Z,94.40
2019-06-07T06:04:29.416Z,90.10
2019-06-07T06:07:35.809Z,89.68
2019-06-07T06:10:40.352Z,91.21
2019-06-07T06:14:05.332Z,92.53
2019-06-07T06:16:50.289Z,91.25
2019-06-07T06:19:54.220Z,91.64
2019-06-07T06:22:58.201Z,88.87
2019-06-07T06:26:02.376Z,89.24
2019-06-07T06:29:06.809Z,89.64
2019-06-07T06:35:16.624Z,86.66
2019-06-07T06:38:20.525Z,87.69
2019-06-07T06:41:24.353Z,87.29
2019-06-07T06:44:31.967Z,86.10
2019-06-07T06:47:35.950Z,84.95
2019-06-07T06:50:41.083Z,83.52
2019-06-07T06:53:46.872Z,82.04
2019-06-07T06:56:52.788Z,81.45
2019-06-07T06:59:58.664Z,81.65
2019-06-07T07:03:46.992Z,78.82
2019-06-07T07:06:25.308Z,79.36
2019-06-07T07:09:14.826Z,77.69
2019-06-07T07:12:20.500Z,78.01
2019-06-07T07:15:24.350Z,78.01
2019-06-07T07:19:15.945Z,76.92
2019-06-07T07:22:19.840Z,75.09
2019-06-07T07:25:23.683Z,73.51
2019-06-07T07:28:30.426Z,73.74
2019-06-07T07:31:52.349Z,74.61
2019-06-07T07:35:13.951Z,72.49
2019-06-07T07:38:29.601Z,73.46
2019-06-07T07:42:13.762Z,72.55
2019-06-07T07:44:56.913Z,73.05
2019-06-07T07:48:14.642Z,72.32
2019-06-07T07:51:06.589Z,72.05
2019-06-07T07:54:11.327Z,70.48
2019-06-07T07:57:15.374Z,70.20
2019-06-07T08:00:50.406Z,69.97
2019-06-07T08:03:25.499Z,71.59
2019-06-07T08:06:29.347Z,67.85
2019-06-07T08:09:33.285Z,67.44
2019-06-07T08:13:00.472Z,67.84
2019-06-07T08:15:42.921Z,67.99
2019-06-07T08:18:50.921Z,66.00
2019-06-07T08:21:53.061Z,65.73
2019-06-07T08:24:59.939Z,64.95
2019-06-07T08:28:02.690Z,65.27
2019-06-07T08:31:07.839Z,60.63
2019-06-07T08:34:12.129Z,61.51
2019-06-07T08:37:15.958Z,62.17
2019-06-07T08:40:21.747Z,61.14
2019-06-07T08:43:25.642Z,61.89
2019-06-07T08:46:29.462Z,61.57
2019-06-07T08:49:33.465Z,61.72
2019-06-07T08:52:37.430Z,57.49
2019-06-07T08:55:41.439Z,59.95
2019-06-07T08:58:45.295Z,59.61
2019-06-07T09:01:49.169Z,59.26
2019-06-07T09:04:56.426Z,58.66
2019-06-07T09:08:22.282Z,58.17
2019-06-07T09:11:10.131Z,58.03
2019-06-07T09:14:10.216Z,56.24
2019-06-07T09:17:14.094Z,54.81
2019-06-07T09:20:35.774Z,58.23
2019-06-07T09:23:25.778Z,53.16
2019-06-07T09:26:30.475Z,51.61
2019-06-07T09:29:34.759Z,55.17
2019-06-07T09:32:38.611Z,53.33
2019-06-07T09:35:42.717Z,54.09
2019-06-07T09:38:47.962Z,55.73
2019-06-07T09:41:51.836Z,51.91
2019-06-07T09:44:57.017Z,52.07
2019-06-07T09:48:04.387Z,51.39
2019-06-07T09:51:18.657Z,52.96
2019-06-07T09:55:02.407Z,51.96
2019-06-07T09:57:18.200Z,50.55
2019-06-07T10:00:39.746Z,51.04
2019-06-07T10:03:27.850Z,55.13
2019-06-07T10:06:31.773Z,52.39
2019-06-07T10:10:09.971Z,54.31
2019-06-07T10:12:41.314Z,52.89
2019-06-07T10:15:45.187Z,51.22
2019-06-07T10:18:49.129Z,50.39
2019-06-07T10:21:53.027Z,51.17
2019-06-07T10:24:56.856Z,49.67
2019-06-07T10:28:01.815Z,53.17
2019-06-07T10:31:07.787Z,51.07
2019-06-07T10:34:11.654Z,52.39
2019-06-07T10:37:16.005Z,52.13
2019-06-07T10:40:20.298Z,54.53
2019-06-07T10:43:24.222Z,52.94
2019-06-07T10:46:29.143Z,53.64
2019-06-07T10:49:33.389Z,50.93
2019-06-07T10:52:37.335Z,53.76
2019-06-07T10:55:44.494Z,54.38
2019-06-07T10:58:48.424Z,53.94
2019-06-07T11:01:52.571Z,53.17
2019-06-07T11:04:56.653Z,51.61
2019-06-07T11:08:00.853Z,54.77
2019-06-07T11:11:06.017Z,52.95
2019-06-07T11:14:10.613Z,53.30
2019-06-07T11:17:15.774Z,54.38
2019-06-07T11:20:20.307Z,51.29
2019-06-07T11:23:24.230Z,51.76
2019-06-07T11:26:28.081Z,53.88
2019-06-07T11:29:31.890Z,54.02
2019-06-07T11:32:39.615Z,57.23
2019-06-07T11:35:43.455Z,50.26
2019-06-07T11:38:47.319Z,51.50
2019-06-07T11:41:51.255Z,54.85
2019-06-07T11:44:57.064Z,52.87
2019-06-07T11:48:00.768Z,52.96
2019-06-07T11:51:04.774Z,52.04
2019-06-07T11:54:09.678Z,52.19
2019-06-07T11:57:15.068Z,52.11
2019-06-07T12:00:20.692Z,51.87
2019-06-07T12:03:24.500Z,51.87
2019-06-07T12:06:29.200Z,47.74
2019-06-07T12:09:33.082Z,52.62
2019-06-07T12:12:37.067Z,50.51
2019-06-07T12:15:40.900Z,49.00
2019-06-07T12:18:44.846Z,50.86
2019-06-07T12:21:48.659Z,48.40
2019-06-07T12:24:52.477Z,51.25
2019-06-07T12:27:56.289Z,52.73
2019-06-07T12:31:00.087Z,53.97
2019-06-07T12:34:04.085Z,53.97
2019-06-07T12:37:07.997Z,54.13
2019-06-07T12:40:22.976Z,52.14
2019-06-07T12:43:19.104Z,54.53
2019-06-07T12:46:26.823Z,54.10
2019-06-07T12:49:28.762Z,54.34
2019-06-07T12:52:32.581Z,53.96
2019-06-07T12:55:36.481Z,54.79
2019-06-07T12:58:40.304Z,51.53
2019-06-07T13:01:44.304Z,51.53
2019-06-07T13:04:48.196Z,51.16
2019-06-07T13:07:52.055Z,51.44
2019-06-07T13:10:55.894Z,52.01
2019-06-07T13:13:59.801Z,50.00
2019-06-07T13:17:03.712Z,48.92
2019-06-07T13:20:08.569Z,45.42
2019-06-07T13:23:12.432Z,44.56
2019-06-07T13:26:16.942Z,44.72
2019-06-07T13:29:22.583Z,45.42
2019-06-07T13:32:28.070Z,44.33
2019-06-07T13:35:32.156Z,45.69
2019-06-07T13:38:35.972Z,44.59
2019-06-07T13:41:42.938Z,44.59
2019-06-07T13:44:45.412Z,47.14
2019-06-07T13:47:49.334Z,46.32
2019-06-07T13:50:53.244Z,46.50
2019-06-07T13:53:57.046Z,46.51
2019-06-07T13:57:02.968Z,46.00
2019-06-07T14:00:10.846Z,43.05
2019-06-07T14:03:13.718Z,41.19
2019-06-07T14:06:18.830Z,41.35
2019-06-07T14:09:23.297Z,40.73
2019-06-07T14:12:27.824Z,42.51
2019-06-07T14:15:34.426Z,40.94
2019-06-07T14:18:37.389Z,40.79
2019-06-07T14:21:41.238Z,41.32
2019-06-07T14:24:45.091Z,43.75
2019-06-07T14:27:48.920Z,46.01
2019-06-07T14:30:52.775Z,44.09
2019-06-07T14:33:56.701Z,44.09
2019-06-07T14:37:00.520Z,43.96
2019-06-07T14:40:04.863Z,44.56
2019-06-07T14:43:08.672Z,43.42
2019-06-07T14:46:12.618Z,43.81
2019-06-07T14:49:16.430Z,45.85
2019-06-07T14:52:20.325Z,43.05
2019-06-07T14:55:25.097Z,43.05
2019-06-07T14:58:29.427Z,41.26
2019-06-07T15:01:33.635Z,41.50
2019-06-07T15:04:41.382Z,42.20
2019-06-07T15:07:45.226Z,40.49
2019-06-07T15:10:49.104Z,41.44
2019-06-07T15:13:53.019Z,40.16
2019-06-07T15:16:56.833Z,41.56
2019-06-07T15:20:00.759Z,42.39
2019-06-07T15:23:04.658Z,41.34
2019-06-07T15:26:08.568Z,41.90
2019-06-07T15:29:12.425Z,40.28
2019-06-07T15:32:16.428Z,41.00
2019-06-07T15:35:20.406Z,41.21
2019-06-07T15:38:24.228Z,42.22
2019-06-07T15:41:28.954Z,42.28
2019-06-07T15:44:33.378Z,42.72
2019-06-07T15:47:38.365Z,42.96
2019-06-07T15:50:42.653Z,43.08
2019-06-07T15:53:46.507Z,43.88
2019-06-07T15:56:50.319Z,43.61
2019-06-07T15:59:54.192Z,42.97
2019-06-07T16:02:58.008Z,44.34
2019-06-07T16:06:01.922Z,44.20
2019-06-07T16:09:07.589Z,43.86
2019-06-07T16:12:11.528Z,45.97
2019-06-07T16:15:16.075Z,47.41
2019-06-07T16:18:19.926Z,48.75
2019-06-07T16:21:23.753Z,48.10
2019-06-07T16:24:28.531Z,45.59
2019-06-07T16:27:36.914Z,50.19
2019-06-07T16:30:41.165Z,49.99
2019-06-07T16:33:45.232Z,52.50
2019-06-07T16:36:49.259Z,54.22
2019-06-07T16:39:53.172Z,54.99
2019-06-07T16:43:13.327Z,55.59
2019-06-07T16:46:05.048Z,58.46
2019-06-07T16:49:08.987Z,58.51
2019-06-07T16:52:19.403Z,60.24
2019-06-07T16:55:23.501Z,61.75
2019-06-07T16:58:31.722Z,62.41
2019-06-07T17:01:36.874Z,63.12
2019-06-07T17:04:41.619Z,63.86
2019-06-07T17:07:48.806Z,63.06
2019-06-07T17:10:52.990Z,63.51
2019-06-07T17:13:57.002Z,64.92
2019-06-07T17:17:00.953Z,63.40
2019-06-07T17:20:08.826Z,65.16
2019-06-07T17:23:12.939Z,66.82
2019-06-07T17:26:19.222Z,68.00
2019-06-07T17:29:25.923Z,67.96
2019-06-07T17:32:29.904Z,68.33
2019-06-07T17:35:59.827Z,67.98
2019-06-07T17:39:06.728Z,67.86
2019-06-07T17:42:10.900Z,68.90
2019-06-07T17:45:22.948Z,69.58
2019-06-07T17:48:45.543Z,69.84
2019-06-07T17:51:52.199Z,70.10
2019-06-07T17:54:59.539Z,68.93
2019-06-07T17:58:08.845Z,71.42
2019-06-07T18:01:12.731Z,72.19
2019-06-07T18:04:16.848Z,72.96
2019-06-07T18:07:22.315Z,73.68
2019-06-07T18:10:37.470Z,74.31
2019-06-07T18:13:46.085Z,74.54
2019-06-07T18:16:50.566Z,74.98
2019-06-07T18:19:55.283Z,76.44
2019-06-07T18:22:59.313Z,76.69
2019-06-07T18:26:03.248Z,75.56
2019-06-07T18:29:07.160Z,76.88
2019-06-07T18:32:13.516Z,76.78
2019-06-07T18:35:16.932Z,78.68
2019-06-07T18:38:21.068Z,79.00
2019-06-07T18:41:25.024Z,80.36
2019-06-07T18:44:28.921Z,81.79
2019-06-07T18:47:32.861Z,81.70
2019-06-07T18:50:36.991Z,81.58
2019-06-07T18:53:40.957Z,82.37
2019-06-07T18:56:44.914Z,82.82
2019-06-07T18:59:50.100Z,82.97
2019-06-07T19:02:54.099Z,83.95
2019-06-07T19:05:58.323Z,84.04
2019-06-07T19:09:02.327Z,84.91
2019-06-07T19:12:06.157Z,84.93
2019-06-07T19:15:12.058Z,85.78
2019-06-07T19:18:16.149Z,85.13
2019-06-07T19:21:20.040Z,85.00
2019-06-07T19:24:23.989Z,85.37
2019-06-07T19:27:27.943Z,86.38
2019-06-07T19:30:31.888Z,86.10
2019-06-07T19:33:48.446Z,86.69
2019-06-07T19:36:48.659Z,87.21
2019-06-07T19:39:47.197Z,86.55
2019-06-07T19:42:52.160Z,86.76
2019-06-07T19:45:56.249Z,87.23
2019-06-07T19:49:00.841Z,87.58
2019-06-07T19:52:04.944Z,88.03
2019-06-07T19:55:10.068Z,87.74
2019-06-07T19:58:14.584Z,87.98
2019-06-07T20:01:23.353Z,87.35
2019-06-07T20:04:29.309Z,88.33
2019-06-07T20:07:33.643Z,89.33
2019-06-07T20:10:40.128Z,89.59
2019-06-07T20:13:44.144Z,90.17
2019-06-07T20:16:48.260Z,90.51
2019-06-07T20:19:52.329Z,90.93
2019-06-07T20:22:56.556Z,90.60
2019-06-07T20:26:00.966Z,91.37
2019-06-07T20:29:14.523Z,91.67
2019-06-07T20:32:12.273Z,91.37
2019-06-07T20:35:16.649Z,91.79
2019-06-07T20:38:20.699Z,91.82
2019-06-07T20:41:25.949Z,90.34
2019-06-07T20:44:30.104Z,90.31
2019-06-07T20:47:35.867Z,90.31
2019-06-07T20:50:40.281Z,88.85
2019-06-07T20:53:44.471Z,89.14
2019-06-07T20:56:48.445Z,88.70
2019-06-07T20:59:56.175Z,87.89
2019-06-07T21:03:01.112Z,88.07
2019-06-07T21:06:05.565Z,88.21
2019-06-07T21:09:09.920Z,87.86
2019-06-07T21:12:13.814Z,87.48
2019-06-07T21:15:18.164Z,88.08
2019-06-07T21:18:22.213Z,88.47
2019-06-07T21:21:26.394Z,88.38
2019-06-07T21:24:30.384Z,89.39
2019-06-07T21:27:34.290Z,89.97
2019-06-07T21:30:38.311Z,90.36
2019-06-07T21:33:42.430Z,90.52
2019-06-07T21:36:46.625Z,91.28
2019-06-07T21:39:50.870Z,92.10
2019-06-07T21:42:56.394Z,93.00
2019-06-07T21:46:05.347Z,93.82
2019-06-07T21:49:08.493Z,94.22
2019-06-07T21:52:12.946Z,95.15
2019-06-07T21:55:17.871Z,95.49
2019-06-07T21:58:22.463Z,96.40
2019-06-07T22:01:30.927Z,96.79
2019-06-07T22:04:35.278Z,97.21
2019-06-07T22:07:39.268Z,97.88
2019-06-07T22:10:43.188Z,98.26
2019-06-07T22:13:47.151Z,98.70
2019-06-07T22:16:51.102Z,99.02
2019-06-07T22:19:55.829Z,98.88
2019-06-07T22:22:59.896Z,99.08
2019-06-07T22:26:11.328Z,99.12
2019-06-07T22:29:15.491Z,99.70
2019-06-07T22:32:21.439Z,100.00
2019-06-07T22:35:27.195Z,100.00
2019-06-07T22:38:32.811Z,100.00
2019-06-07T22:41:36.981Z,100.00
2019-06-07T22:44:44.049Z,100.00
2019-06-07T22:47:48.294Z,100.00
2019-06-07T22:50:52.541Z,100.00
2019-06-07T22:53:56.817Z,100.00
2019-06-07T22:57:07.800Z,100.00
2019-06-07T23:00:14.339Z,100.00
2019-06-07T23:03:19.087Z,100.00
2019-06-07T23:06:25.591Z,99.81
2019-06-07T23:09:33.277Z,98.38
2019-06-07T23:12:38.704Z,98.10
2019-06-07T23:15:42.974Z,97.32
2019-06-07T23:18:47.022Z,97.05
2019-06-07T23:21:51.117Z,95.91
2019-06-07T23:24:59.417Z,96.90
2019-06-07T23:28:10.231Z,97.31
2019-06-07T23:31:14.475Z,98.42
2019-06-07T23:34:18.823Z,99.08
2019-06-07T23:37:23.068Z,99.46
2019-06-07T23:40:26.953Z,99.76
2019-06-07T23:43:30.974Z,100.00
2019-06-07T23:46:34.907Z,100.00
2019-06-07T23:49:38.958Z,100.00
2019-06-07T23:52:43.103Z,100.00
2019-06-07T23:55:46.985Z,100.00
2019-06-07T23:58:51.192Z,100.00
